sensor_id;sensor_type;location;lat;lon;timestamp;P1;durP1;ratioP1;P2;durP2;ratioP2
5507;SDS011;2776;51.046;6.772;2022-12-07T00:00:18;25.93;;;17.80;;
5507;SDS011;2776;51.046;6.772;2022-12-07T00:02:45;23.27;;;17.80;;
5507;SDS011;2776;51.046;6.772;2022-12-07T00:05:12;21.87;;;17.90;;
5507;SDS011;2776;51.046;6.772;2022-12-07T00:07:39;23.47;;;17.20;;
5507;SDS011;2776;51.046;6.772;2022-12-07T00:10:06;23.07;;;17.60;;
5507;SDS011;2776;51.046;6.772;2022-12-07T00:12:34;25.63;;;17.97;;
5507;SDS011;2776;51.046;6.772;2022-12-07T00:15:01;25.30;;;17.60;;
5507;SDS011;2776;51.046;6.772;2022-12-07T00:17:28;27.30;;;18.03;;
5507;SDS011;2776;51.046;6.772;2022-12-07T00:19:55;24.77;;;17.00;;
5507;SDS011;2776;51.046;6.772;2022-12-07T00:22:21;27.63;;;18.77;;
5507;SDS011;2776;51.046;6.772;2022-12-07T00:24:48;22.37;;;16.47;;
5507;SDS011;2776;51.046;6.772;2022-12-07T00:27:15;22.77;;;16.93;;
5507;SDS011;2776;51.046;6.772;2022-12-07T00:29:43;25.93;;;17.00;;
5507;SDS011;2776;51.046;6.772;2022-12-07T00:32:10;20.70;;;17.00;;
5507;SDS011;2776;51.046;6.772;2022-12-07T00:34:36;20.80;;;16.50;;
5507;SDS011;2776;51.046;6.772;2022-12-07T00:37:03;26.77;;;17.47;;
5507;SDS011;2776;51.046;6.772;2022-12-07T00:39:30;22.60;;;17.17;;
5507;SDS011;2776;51.046;6.772;2022-12-07T00:41:57;23.63;;;16.60;;
5507;SDS011;2776;51.046;6.772;2022-12-07T00:44:24;22.83;;;15.97;;
5507;SDS011;2776;51.046;6.772;2022-12-07T00:46:52;18.70;;;16.07;;
5507;SDS011;2776;51.046;6.772;2022-12-07T00:49:19;20.13;;;16.37;;
5507;SDS011;2776;51.046;6.772;2022-12-07T00:51:47;22.13;;;16.67;;
5507;SDS011;2776;51.046;6.772;2022-12-07T00:54:14;20.83;;;16.10;;
5507;SDS011;2776;51.046;6.772;2022-12-07T00:56:41;28.50;;;16.97;;
5507;SDS011;2776;51.046;6.772;2022-12-07T00:59:10;22.63;;;17.20;;
5507;SDS011;2776;51.046;6.772;2022-12-07T01:01:38;24.80;;;17.80;;
5507;SDS011;2776;51.046;6.772;2022-12-07T01:04:06;26.47;;;18.43;;
5507;SDS011;2776;51.046;6.772;2022-12-07T01:06:33;28.77;;;20.87;;
5507;SDS011;2776;51.046;6.772;2022-12-07T01:09:00;27.33;;;21.27;;
5507;SDS011;2776;51.046;6.772;2022-12-07T01:11:28;24.90;;;19.87;;
5507;SDS011;2776;51.046;6.772;2022-12-07T01:13:56;27.40;;;20.23;;
5507;SDS011;2776;51.046;6.772;2022-12-07T01:16:25;23.93;;;18.90;;
5507;SDS011;2776;51.046;6.772;2022-12-07T01:18:53;26.30;;;20.70;;
5507;SDS011;2776;51.046;6.772;2022-12-07T01:21:23;27.87;;;20.43;;
5507;SDS011;2776;51.046;6.772;2022-12-07T01:23:51;29.50;;;19.93;;
5507;SDS011;2776;51.046;6.772;2022-12-07T01:26:19;29.30;;;21.50;;
5507;SDS011;2776;51.046;6.772;2022-12-07T01:28:46;25.20;;;19.77;;
5507;SDS011;2776;51.046;6.772;2022-12-07T01:31:14;28.20;;;19.40;;
5507;SDS011;2776;51.046;6.772;2022-12-07T01:33:42;24.27;;;20.13;;
5507;SDS011;2776;51.046;6.772;2022-12-07T01:36:13;27.33;;;20.40;;
5507;SDS011;2776;51.046;6.772;2022-12-07T01:38:42;27.70;;;20.47;;
5507;SDS011;2776;51.046;6.772;2022-12-07T01:41:09;29.40;;;19.97;;
5507;SDS011;2776;51.046;6.772;2022-12-07T01:44:06;29.87;;;21.03;;
5507;SDS011;2776;51.046;6.772;2022-12-07T01:46:46;27.93;;;21.17;;
5507;SDS011;2776;51.046;6.772;2022-12-07T01:49:18;29.53;;;20.83;;
5507;SDS011;2776;51.046;6.772;2022-12-07T01:51:52;29.53;;;20.57;;
5507;SDS011;2776;51.046;6.772;2022-12-07T01:54:28;29.90;;;22.50;;
5507;SDS011;2776;51.046;6.772;2022-12-07T01:56:55;32.17;;;21.70;;
5507;SDS011;2776;51.046;6.772;2022-12-07T01:59:24;33.53;;;21.77;;
5507;SDS011;2776;51.046;6.772;2022-12-07T02:01:52;28.77;;;22.23;;
5507;SDS011;2776;51.046;6.772;2022-12-07T02:04:21;33.10;;;22.07;;
5507;SDS011;2776;51.046;6.772;2022-12-07T02:06:48;31.10;;;22.03;;
5507;SDS011;2776;51.046;6.772;2022-12-07T02:09:16;30.97;;;22.53;;
5507;SDS011;2776;51.046;6.772;2022-12-07T02:11:44;29.20;;;22.23;;
5507;SDS011;2776;51.046;6.772;2022-12-07T02:14:11;31.30;;;22.83;;
5507;SDS011;2776;51.046;6.772;2022-12-07T02:16:40;34.20;;;23.40;;
5507;SDS011;2776;51.046;6.772;2022-12-07T02:22:21;30.90;;;23.07;;
5507;SDS011;2776;51.046;6.772;2022-12-07T02:25:07;30.57;;;23.50;;
5507;SDS011;2776;51.046;6.772;2022-12-07T02:27:45;31.33;;;24.50;;
5507;SDS011;2776;51.046;6.772;2022-12-07T02:30:15;33.37;;;24.67;;
5507;SDS011;2776;51.046;6.772;2022-12-07T02:32:44;31.83;;;23.03;;
5507;SDS011;2776;51.046;6.772;2022-12-07T02:35:17;31.57;;;23.00;;
5507;SDS011;2776;51.046;6.772;2022-12-07T02:37:50;34.67;;;24.47;;
5507;SDS011;2776;51.046;6.772;2022-12-07T02:40:25;31.17;;;24.10;;
5507;SDS011;2776;51.046;6.772;2022-12-07T02:42:57;37.47;;;24.70;;
5507;SDS011;2776;51.046;6.772;2022-12-07T02:45:28;34.37;;;23.27;;
5507;SDS011;2776;51.046;6.772;2022-12-07T02:47:57;33.83;;;24.70;;
5507;SDS011;2776;51.046;6.772;2022-12-07T02:50:26;34.80;;;24.17;;
5507;SDS011;2776;51.046;6.772;2022-12-07T02:52:53;38.50;;;25.93;;
5507;SDS011;2776;51.046;6.772;2022-12-07T02:55:22;32.87;;;23.83;;
5507;SDS011;2776;51.046;6.772;2022-12-07T02:58:06;34.90;;;24.17;;
5507;SDS011;2776;51.046;6.772;2022-12-07T03:00:48;35.77;;;25.17;;
5507;SDS011;2776;51.046;6.772;2022-12-07T03:03:20;34.23;;;24.47;;
5507;SDS011;2776;51.046;6.772;2022-12-07T03:05:52;36.10;;;24.00;;
5507;SDS011;2776;51.046;6.772;2022-12-07T03:08:30;32.73;;;23.67;;
5507;SDS011;2776;51.046;6.772;2022-12-07T03:11:05;34.20;;;24.27;;
5507;SDS011;2776;51.046;6.772;2022-12-07T03:13:37;35.77;;;24.93;;
5507;SDS011;2776;51.046;6.772;2022-12-07T03:16:12;30.37;;;22.53;;
5507;SDS011;2776;51.046;6.772;2022-12-07T03:18:43;33.80;;;23.33;;
5507;SDS011;2776;51.046;6.772;2022-12-07T03:21:14;33.80;;;23.90;;
5507;SDS011;2776;51.046;6.772;2022-12-07T03:23:44;35.67;;;24.47;;
5507;SDS011;2776;51.046;6.772;2022-12-07T03:26:15;34.20;;;23.70;;
5507;SDS011;2776;51.046;6.772;2022-12-07T03:28:47;34.13;;;24.13;;
5507;SDS011;2776;51.046;6.772;2022-12-07T03:31:18;34.70;;;23.30;;
5507;SDS011;2776;51.046;6.772;2022-12-07T03:33:49;35.40;;;24.43;;
5507;SDS011;2776;51.046;6.772;2022-12-07T03:36:24;36.53;;;23.73;;
5507;SDS011;2776;51.046;6.772;2022-12-07T03:38:57;36.67;;;24.67;;
5507;SDS011;2776;51.046;6.772;2022-12-07T03:41:28;32.40;;;22.97;;
5507;SDS011;2776;51.046;6.772;2022-12-07T03:43:57;34.97;;;24.17;;
5507;SDS011;2776;51.046;6.772;2022-12-07T03:46:29;36.47;;;23.40;;
5507;SDS011;2776;51.046;6.772;2022-12-07T03:49:03;35.20;;;24.33;;
5507;SDS011;2776;51.046;6.772;2022-12-07T03:51:36;35.47;;;23.53;;
5507;SDS011;2776;51.046;6.772;2022-12-07T03:54:09;34.27;;;25.20;;
5507;SDS011;2776;51.046;6.772;2022-12-07T03:56:39;33.00;;;24.97;;
5507;SDS011;2776;51.046;6.772;2022-12-07T03:59:08;36.70;;;24.40;;
5507;SDS011;2776;51.046;6.772;2022-12-07T04:01:37;34.67;;;24.07;;
5507;SDS011;2776;51.046;6.772;2022-12-07T04:04:03;33.83;;;25.23;;
5507;SDS011;2776;51.046;6.772;2022-12-07T04:06:30;39.33;;;24.57;;
5507;SDS011;2776;51.046;6.772;2022-12-07T04:08:57;36.40;;;24.60;;
5507;SDS011;2776;51.046;6.772;2022-12-07T04:11:24;38.37;;;26.20;;
5507;SDS011;2776;51.046;6.772;2022-12-07T04:13:50;38.47;;;25.83;;
5507;SDS011;2776;51.046;6.772;2022-12-07T04:16:36;37.40;;;24.47;;
5507;SDS011;2776;51.046;6.772;2022-12-07T04:19:03;35.83;;;25.13;;
5507;SDS011;2776;51.046;6.772;2022-12-07T04:21:30;36.07;;;25.43;;
5507;SDS011;2776;51.046;6.772;2022-12-07T04:23:56;36.93;;;25.00;;
5507;SDS011;2776;51.046;6.772;2022-12-07T04:26:23;36.10;;;24.47;;
5507;SDS011;2776;51.046;6.772;2022-12-07T04:28:50;35.50;;;24.93;;
5507;SDS011;2776;51.046;6.772;2022-12-07T04:31:16;33.80;;;22.40;;
5507;SDS011;2776;51.046;6.772;2022-12-07T04:33:44;33.73;;;23.30;;
5507;SDS011;2776;51.046;6.772;2022-12-07T04:36:11;31.20;;;22.73;;
5507;SDS011;2776;51.046;6.772;2022-12-07T04:38:38;38.93;;;24.80;;
5507;SDS011;2776;51.046;6.772;2022-12-07T04:41:05;38.50;;;25.50;;
5507;SDS011;2776;51.046;6.772;2022-12-07T04:43:33;39.80;;;25.57;;
5507;SDS011;2776;51.046;6.772;2022-12-07T04:46:00;33.93;;;24.13;;
5507;SDS011;2776;51.046;6.772;2022-12-07T04:48:28;38.50;;;25.17;;
5507;SDS011;2776;51.046;6.772;2022-12-07T04:50:56;31.93;;;23.27;;
5507;SDS011;2776;51.046;6.772;2022-12-07T04:53:23;32.63;;;23.53;;
5507;SDS011;2776;51.046;6.772;2022-12-07T04:55:49;33.93;;;24.03;;
5507;SDS011;2776;51.046;6.772;2022-12-07T04:58:16;33.70;;;24.87;;
5507;SDS011;2776;51.046;6.772;2022-12-07T05:00:43;31.13;;;22.77;;
5507;SDS011;2776;51.046;6.772;2022-12-07T05:03:09;34.73;;;24.57;;
5507;SDS011;2776;51.046;6.772;2022-12-07T05:05:39;33.93;;;23.33;;
5507;SDS011;2776;51.046;6.772;2022-12-07T05:08:07;34.87;;;25.20;;
5507;SDS011;2776;51.046;6.772;2022-12-07T05:10:34;33.13;;;24.70;;
5507;SDS011;2776;51.046;6.772;2022-12-07T05:13:01;30.20;;;22.87;;
5507;SDS011;2776;51.046;6.772;2022-12-07T05:15:27;31.27;;;23.47;;
5507;SDS011;2776;51.046;6.772;2022-12-07T05:17:54;32.37;;;23.53;;
5507;SDS011;2776;51.046;6.772;2022-12-07T05:20:21;33.10;;;24.07;;
5507;SDS011;2776;51.046;6.772;2022-12-07T05:22:48;32.13;;;23.90;;
5507;SDS011;2776;51.046;6.772;2022-12-07T05:25:16;31.63;;;22.93;;
5507;SDS011;2776;51.046;6.772;2022-12-07T05:27:43;28.87;;;22.23;;
5507;SDS011;2776;51.046;6.772;2022-12-07T05:30:10;31.50;;;23.10;;
5507;SDS011;2776;51.046;6.772;2022-12-07T05:32:37;29.50;;;22.17;;
5507;SDS011;2776;51.046;6.772;2022-12-07T05:35:04;31.87;;;22.27;;
5507;SDS011;2776;51.046;6.772;2022-12-07T05:37:31;25.60;;;21.43;;
5507;SDS011;2776;51.046;6.772;2022-12-07T05:39:58;32.13;;;24.07;;
5507;SDS011;2776;51.046;6.772;2022-12-07T05:42:26;29.10;;;22.20;;
5507;SDS011;2776;51.046;6.772;2022-12-07T05:44:53;30.37;;;22.07;;
5507;SDS011;2776;51.046;6.772;2022-12-07T05:47:19;34.37;;;22.30;;
5507;SDS011;2776;51.046;6.772;2022-12-07T05:49:46;27.50;;;21.00;;
5507;SDS011;2776;51.046;6.772;2022-12-07T05:52:13;27.73;;;19.83;;
5507;SDS011;2776;51.046;6.772;2022-12-07T05:54:40;27.13;;;19.43;;
5507;SDS011;2776;51.046;6.772;2022-12-07T05:57:07;28.70;;;19.67;;
5507;SDS011;2776;51.046;6.772;2022-12-07T05:59:35;29.20;;;20.10;;
5507;SDS011;2776;51.046;6.772;2022-12-07T06:02:02;26.50;;;19.70;;
5507;SDS011;2776;51.046;6.772;2022-12-07T06:04:32;25.23;;;18.53;;
5507;SDS011;2776;51.046;6.772;2022-12-07T06:07:00;30.93;;;19.90;;
5507;SDS011;2776;51.046;6.772;2022-12-07T06:09:27;30.40;;;20.83;;
5507;SDS011;2776;51.046;6.772;2022-12-07T06:11:55;29.10;;;19.77;;
5507;SDS011;2776;51.046;6.772;2022-12-07T06:14:41;25.80;;;18.70;;
5507;SDS011;2776;51.046;6.772;2022-12-07T06:17:08;29.87;;;18.93;;
5507;SDS011;2776;51.046;6.772;2022-12-07T06:19:35;28.20;;;18.83;;
5507;SDS011;2776;51.046;6.772;2022-12-07T06:22:02;29.37;;;19.53;;
5507;SDS011;2776;51.046;6.772;2022-12-07T06:24:30;27.90;;;19.10;;
5507;SDS011;2776;51.046;6.772;2022-12-07T06:26:57;25.73;;;18.87;;
5507;SDS011;2776;51.046;6.772;2022-12-07T06:29:24;34.00;;;21.40;;
5507;SDS011;2776;51.046;6.772;2022-12-07T06:31:52;30.13;;;20.87;;
5507;SDS011;2776;51.046;6.772;2022-12-07T06:34:20;30.07;;;21.93;;
5507;SDS011;2776;51.046;6.772;2022-12-07T06:36:48;28.10;;;19.47;;
5507;SDS011;2776;51.046;6.772;2022-12-07T06:39:16;28.77;;;21.03;;
5507;SDS011;2776;51.046;6.772;2022-12-07T06:41:43;31.63;;;20.17;;
5507;SDS011;2776;51.046;6.772;2022-12-07T06:44:10;29.87;;;20.60;;
5507;SDS011;2776;51.046;6.772;2022-12-07T06:46:37;31.50;;;19.77;;
5507;SDS011;2776;51.046;6.772;2022-12-07T06:49:05;26.13;;;18.37;;
5507;SDS011;2776;51.046;6.772;2022-12-07T06:51:32;26.87;;;19.13;;
5507;SDS011;2776;51.046;6.772;2022-12-07T06:54:00;25.63;;;18.30;;
5507;SDS011;2776;51.046;6.772;2022-12-07T06:56:27;27.17;;;19.23;;
5507;SDS011;2776;51.046;6.772;2022-12-07T06:58:53;26.07;;;18.93;;
5507;SDS011;2776;51.046;6.772;2022-12-07T07:01:20;22.33;;;17.50;;
5507;SDS011;2776;51.046;6.772;2022-12-07T07:03:47;23.43;;;17.93;;
5507;SDS011;2776;51.046;6.772;2022-12-07T07:06:15;26.60;;;17.60;;
5507;SDS011;2776;51.046;6.772;2022-12-07T07:08:42;28.27;;;16.67;;
5507;SDS011;2776;51.046;6.772;2022-12-07T07:11:09;26.37;;;17.73;;
5507;SDS011;2776;51.046;6.772;2022-12-07T07:13:36;22.13;;;16.87;;
5507;SDS011;2776;51.046;6.772;2022-12-07T07:16:03;29.43;;;17.50;;
5507;SDS011;2776;51.046;6.772;2022-12-07T07:18:31;25.37;;;17.30;;
5507;SDS011;2776;51.046;6.772;2022-12-07T07:20:58;27.37;;;16.90;;
5507;SDS011;2776;51.046;6.772;2022-12-07T07:23:26;25.27;;;17.43;;
5507;SDS011;2776;51.046;6.772;2022-12-07T07:25:52;22.10;;;17.37;;
5507;SDS011;2776;51.046;6.772;2022-12-07T07:28:19;26.67;;;17.57;;
5507;SDS011;2776;51.046;6.772;2022-12-07T07:30:46;25.80;;;17.37;;
5507;SDS011;2776;51.046;6.772;2022-12-07T07:33:13;24.20;;;17.67;;
5507;SDS011;2776;51.046;6.772;2022-12-07T07:35:40;26.43;;;18.50;;
5507;SDS011;2776;51.046;6.772;2022-12-07T07:38:07;24.80;;;17.37;;
5507;SDS011;2776;51.046;6.772;2022-12-07T07:40:35;22.63;;;17.80;;
5507;SDS011;2776;51.046;6.772;2022-12-07T07:43:02;25.67;;;17.97;;
5507;SDS011;2776;51.046;6.772;2022-12-07T07:45:29;24.67;;;17.17;;
5507;SDS011;2776;51.046;6.772;2022-12-07T07:47:56;22.20;;;16.73;;
5507;SDS011;2776;51.046;6.772;2022-12-07T07:50:23;22.30;;;17.17;;
5507;SDS011;2776;51.046;6.772;2022-12-07T07:52:49;22.43;;;15.37;;
5507;SDS011;2776;51.046;6.772;2022-12-07T07:55:17;20.53;;;15.87;;
5507;SDS011;2776;51.046;6.772;2022-12-07T07:57:45;18.13;;;14.97;;
5507;SDS011;2776;51.046;6.772;2022-12-07T08:00:13;17.53;;;14.30;;
5507;SDS011;2776;51.046;6.772;2022-12-07T08:02:41;20.73;;;13.67;;
5507;SDS011;2776;51.046;6.772;2022-12-07T08:05:09;20.53;;;14.17;;
5507;SDS011;2776;51.046;6.772;2022-12-07T08:07:37;22.93;;;15.03;;
5507;SDS011;2776;51.046;6.772;2022-12-07T08:10:04;17.47;;;13.57;;
5507;SDS011;2776;51.046;6.772;2022-12-07T08:12:34;22.10;;;15.80;;
5507;SDS011;2776;51.046;6.772;2022-12-07T08:15:03;20.53;;;14.53;;
5507;SDS011;2776;51.046;6.772;2022-12-07T08:17:31;26.20;;;16.63;;
5507;SDS011;2776;51.046;6.772;2022-12-07T08:19:58;21.17;;;17.10;;
5507;SDS011;2776;51.046;6.772;2022-12-07T08:22:25;23.37;;;16.83;;
5507;SDS011;2776;51.046;6.772;2022-12-07T08:24:52;27.23;;;17.30;;
5507;SDS011;2776;51.046;6.772;2022-12-07T08:27:19;22.67;;;16.67;;
5507;SDS011;2776;51.046;6.772;2022-12-07T08:29:45;21.73;;;17.27;;
5507;SDS011;2776;51.046;6.772;2022-12-07T08:32:13;23.20;;;17.33;;
5507;SDS011;2776;51.046;6.772;2022-12-07T08:34:40;22.60;;;16.90;;
5507;SDS011;2776;51.046;6.772;2022-12-07T08:37:07;28.13;;;17.53;;
5507;SDS011;2776;51.046;6.772;2022-12-07T08:39:34;23.20;;;17.17;;
5507;SDS011;2776;51.046;6.772;2022-12-07T08:42:00;27.47;;;18.03;;
5507;SDS011;2776;51.046;6.772;2022-12-07T08:44:27;24.27;;;17.27;;
5507;SDS011;2776;51.046;6.772;2022-12-07T08:46:55;27.63;;;17.13;;
5507;SDS011;2776;51.046;6.772;2022-12-07T08:49:26;24.23;;;17.03;;
5507;SDS011;2776;51.046;6.772;2022-12-07T08:51:57;28.77;;;16.60;;
5507;SDS011;2776;51.046;6.772;2022-12-07T08:54:24;20.80;;;16.53;;
5507;SDS011;2776;51.046;6.772;2022-12-07T08:56:51;26.43;;;19.17;;
5507;SDS011;2776;51.046;6.772;2022-12-07T08:59:21;21.90;;;17.63;;
5507;SDS011;2776;51.046;6.772;2022-12-07T09:01:48;26.97;;;16.43;;
5507;SDS011;2776;51.046;6.772;2022-12-07T09:04:14;23.77;;;17.10;;
5507;SDS011;2776;51.046;6.772;2022-12-07T09:06:43;20.73;;;16.10;;
5507;SDS011;2776;51.046;6.772;2022-12-07T09:09:09;22.30;;;15.67;;
5507;SDS011;2776;51.046;6.772;2022-12-07T09:11:37;29.40;;;19.73;;
5507;SDS011;2776;51.046;6.772;2022-12-07T09:14:04;21.13;;;14.83;;
5507;SDS011;2776;51.046;6.772;2022-12-07T09:16:32;17.70;;;13.47;;
5507;SDS011;2776;51.046;6.772;2022-12-07T09:18:58;19.00;;;13.17;;
5507;SDS011;2776;51.046;6.772;2022-12-07T09:21:25;18.80;;;13.60;;
5507;SDS011;2776;51.046;6.772;2022-12-07T09:23:53;20.80;;;14.17;;
5507;SDS011;2776;51.046;6.772;2022-12-07T09:26:20;16.80;;;12.53;;
5507;SDS011;2776;51.046;6.772;2022-12-07T09:28:47;25.73;;;13.97;;
5507;SDS011;2776;51.046;6.772;2022-12-07T09:31:13;16.70;;;12.10;;
5507;SDS011;2776;51.046;6.772;2022-12-07T09:33:40;17.00;;;11.67;;
5507;SDS011;2776;51.046;6.772;2022-12-07T09:36:07;16.47;;;10.90;;
5507;SDS011;2776;51.046;6.772;2022-12-07T09:38:35;18.40;;;12.17;;
5507;SDS011;2776;51.046;6.772;2022-12-07T09:41:05;17.03;;;10.37;;
5507;SDS011;2776;51.046;6.772;2022-12-07T09:43:33;18.03;;;10.40;;
5507;SDS011;2776;51.046;6.772;2022-12-07T09:46:01;17.70;;;9.83;;
5507;SDS011;2776;51.046;6.772;2022-12-07T09:48:30;15.03;;;9.77;;
5507;SDS011;2776;51.046;6.772;2022-12-07T09:50:59;16.47;;;9.43;;
5507;SDS011;2776;51.046;6.772;2022-12-07T09:53:29;13.80;;;9.10;;
5507;SDS011;2776;51.046;6.772;2022-12-07T09:55:58;17.03;;;11.07;;
5507;SDS011;2776;51.046;6.772;2022-12-07T09:58:28;14.87;;;9.43;;
5507;SDS011;2776;51.046;6.772;2022-12-07T10:00:58;16.40;;;8.97;;
5507;SDS011;2776;51.046;6.772;2022-12-07T10:03:26;13.23;;;9.07;;
5507;SDS011;2776;51.046;6.772;2022-12-07T10:05:54;16.40;;;10.10;;
5507;SDS011;2776;51.046;6.772;2022-12-07T10:08:22;10.67;;;8.17;;
5507;SDS011;2776;51.046;6.772;2022-12-07T10:10:52;12.87;;;8.40;;
5507;SDS011;2776;51.046;6.772;2022-12-07T10:13:21;10.97;;;7.60;;
5507;SDS011;2776;51.046;6.772;2022-12-07T10:15:51;12.87;;;7.27;;
5507;SDS011;2776;51.046;6.772;2022-12-07T10:18:29;12.97;;;7.30;;
5507;SDS011;2776;51.046;6.772;2022-12-07T10:21:08;9.80;;;6.97;;
5507;SDS011;2776;51.046;6.772;2022-12-07T10:23:38;11.17;;;7.10;;
5507;SDS011;2776;51.046;6.772;2022-12-07T10:29:13;11.60;;;7.10;;
5507;SDS011;2776;51.046;6.772;2022-12-07T10:31:43;13.80;;;8.10;;
5507;SDS011;2776;51.046;6.772;2022-12-07T10:34:15;11.40;;;7.27;;
5507;SDS011;2776;51.046;6.772;2022-12-07T10:36:49;14.73;;;7.33;;
5507;SDS011;2776;51.046;6.772;2022-12-07T10:39:17;8.33;;;6.90;;
5507;SDS011;2776;51.046;6.772;2022-12-07T10:41:52;10.73;;;7.20;;
5507;SDS011;2776;51.046;6.772;2022-12-07T10:44:21;12.07;;;6.90;;
5507;SDS011;2776;51.046;6.772;2022-12-07T10:46:56;12.53;;;6.60;;
5507;SDS011;2776;51.046;6.772;2022-12-07T10:52:49;11.60;;;6.83;;
5507;SDS011;2776;51.046;6.772;2022-12-07T10:55:33;9.27;;;6.63;;
5507;SDS011;2776;51.046;6.772;2022-12-07T10:58:26;12.10;;;8.07;;
5507;SDS011;2776;51.046;6.772;2022-12-07T11:01:02;10.23;;;7.30;;
5507;SDS011;2776;51.046;6.772;2022-12-07T11:03:46;15.03;;;8.60;;
5507;SDS011;2776;51.046;6.772;2022-12-07T11:06:35;17.33;;;7.67;;
5507;SDS011;2776;51.046;6.772;2022-12-07T11:09:20;11.63;;;7.23;;
5507;SDS011;2776;51.046;6.772;2022-12-07T11:11:59;14.93;;;7.57;;
5507;SDS011;2776;51.046;6.772;2022-12-07T11:14:34;12.93;;;7.13;;
5507;SDS011;2776;51.046;6.772;2022-12-07T11:17:07;14.40;;;8.40;;
5507;SDS011;2776;51.046;6.772;2022-12-07T11:19:46;14.60;;;9.37;;
5507;SDS011;2776;51.046;6.772;2022-12-07T11:22:29;13.67;;;10.43;;
5507;SDS011;2776;51.046;6.772;2022-12-07T11:25:13;14.00;;;9.47;;
5507;SDS011;2776;51.046;6.772;2022-12-07T11:27:44;13.30;;;8.77;;
5507;SDS011;2776;51.046;6.772;2022-12-07T11:30:23;15.60;;;11.10;;
5507;SDS011;2776;51.046;6.772;2022-12-07T11:33:07;17.13;;;10.77;;
5507;SDS011;2776;51.046;6.772;2022-12-07T11:35:49;16.53;;;10.80;;
5507;SDS011;2776;51.046;6.772;2022-12-07T11:38:23;16.07;;;10.33;;
5507;SDS011;2776;51.046;6.772;2022-12-07T11:40:58;16.50;;;10.80;;
5507;SDS011;2776;51.046;6.772;2022-12-07T11:43:37;15.27;;;10.80;;
5507;SDS011;2776;51.046;6.772;2022-12-07T11:46:33;18.57;;;10.97;;
5507;SDS011;2776;51.046;6.772;2022-12-07T11:49:12;15.17;;;10.63;;
5507;SDS011;2776;51.046;6.772;2022-12-07T11:51:46;18.73;;;11.83;;
5507;SDS011;2776;51.046;6.772;2022-12-07T11:54:17;18.50;;;11.83;;
5507;SDS011;2776;51.046;6.772;2022-12-07T11:56:47;20.30;;;12.53;;
5507;SDS011;2776;51.046;6.772;2022-12-07T11:59:17;18.17;;;12.00;;
5507;SDS011;2776;51.046;6.772;2022-12-07T12:01:51;16.03;;;11.43;;
5507;SDS011;2776;51.046;6.772;2022-12-07T12:07:11;16.90;;;11.33;;
5507;SDS011;2776;51.046;6.772;2022-12-07T12:09:45;20.07;;;10.43;;
5507;SDS011;2776;51.046;6.772;2022-12-07T12:12:23;15.03;;;9.50;;
5507;SDS011;2776;51.046;6.772;2022-12-07T12:15:16;16.40;;;9.77;;
5507;SDS011;2776;51.046;6.772;2022-12-07T12:20:47;15.93;;;9.93;;
5507;SDS011;2776;51.046;6.772;2022-12-07T12:23:23;12.90;;;9.13;;
5507;SDS011;2776;51.046;6.772;2022-12-07T12:25:57;16.20;;;9.70;;
5507;SDS011;2776;51.046;6.772;2022-12-07T12:28:27;13.20;;;8.53;;
5507;SDS011;2776;51.046;6.772;2022-12-07T12:31:10;10.87;;;8.47;;
5507;SDS011;2776;51.046;6.772;2022-12-07T12:33:42;12.80;;;7.50;;
5507;SDS011;2776;51.046;6.772;2022-12-07T12:36:18;8.90;;;5.00;;
5507;SDS011;2776;51.046;6.772;2022-12-07T12:39:11;13.50;;;6.53;;
5507;SDS011;2776;51.046;6.772;2022-12-07T12:41:58;13.70;;;6.00;;
5507;SDS011;2776;51.046;6.772;2022-12-07T12:44:38;10.07;;;6.37;;
5507;SDS011;2776;51.046;6.772;2022-12-07T12:47:39;11.50;;;5.87;;
5507;SDS011;2776;51.046;6.772;2022-12-07T12:50:11;9.17;;;5.80;;
5507;SDS011;2776;51.046;6.772;2022-12-07T12:52:47;13.63;;;6.13;;
5507;SDS011;2776;51.046;6.772;2022-12-07T12:58:29;16.40;;;9.47;;
5507;SDS011;2776;51.046;6.772;2022-12-07T13:04:14;10.07;;;6.37;;
5507;SDS011;2776;51.046;6.772;2022-12-07T13:06:47;10.87;;;6.43;;
5507;SDS011;2776;51.046;6.772;2022-12-07T13:09:17;8.53;;;5.40;;
5507;SDS011;2776;51.046;6.772;2022-12-07T13:11:49;10.77;;;5.37;;
5507;SDS011;2776;51.046;6.772;2022-12-07T13:14:41;12.90;;;7.07;;
5507;SDS011;2776;51.046;6.772;2022-12-07T13:23:27;10.57;;;5.37;;
5507;SDS011;2776;51.046;6.772;2022-12-07T13:26:00;12.57;;;8.17;;
5507;SDS011;2776;51.046;6.772;2022-12-07T13:28:40;11.03;;;6.00;;
5507;SDS011;2776;51.046;6.772;2022-12-07T13:31:13;10.47;;;5.67;;
5507;SDS011;2776;51.046;6.772;2022-12-07T13:34:01;7.33;;;5.23;;
5507;SDS011;2776;51.046;6.772;2022-12-07T13:36:29;10.03;;;6.20;;
5507;SDS011;2776;51.046;6.772;2022-12-07T13:39:10;8.07;;;5.17;;
5507;SDS011;2776;51.046;6.772;2022-12-07T13:41:43;9.07;;;6.00;;
5507;SDS011;2776;51.046;6.772;2022-12-07T13:44:13;8.70;;;5.70;;
5507;SDS011;2776;51.046;6.772;2022-12-07T13:46:43;14.77;;;9.47;;
5507;SDS011;2776;51.046;6.772;2022-12-07T13:49:19;12.17;;;6.50;;
5507;SDS011;2776;51.046;6.772;2022-12-07T13:51:48;14.67;;;9.63;;
5507;SDS011;2776;51.046;6.772;2022-12-07T13:54:15;10.53;;;6.63;;
5507;SDS011;2776;51.046;6.772;2022-12-07T13:56:43;11.63;;;5.90;;
5507;SDS011;2776;51.046;6.772;2022-12-07T13:59:15;7.57;;;5.93;;
5507;SDS011;2776;51.046;6.772;2022-12-07T14:01:45;10.93;;;5.97;;
5507;SDS011;2776;51.046;6.772;2022-12-07T14:04:16;10.80;;;5.77;;
5507;SDS011;2776;51.046;6.772;2022-12-07T14:06:47;10.07;;;5.87;;
5507;SDS011;2776;51.046;6.772;2022-12-07T14:09:17;9.73;;;6.17;;
5507;SDS011;2776;51.046;6.772;2022-12-07T14:11:45;8.80;;;5.70;;
5507;SDS011;2776;51.046;6.772;2022-12-07T14:14:15;11.33;;;6.70;;
5507;SDS011;2776;51.046;6.772;2022-12-07T14:16:45;9.13;;;6.97;;
5507;SDS011;2776;51.046;6.772;2022-12-07T14:19:40;12.47;;;6.70;;
5507;SDS011;2776;51.046;6.772;2022-12-07T14:22:15;9.00;;;6.50;;
5507;SDS011;2776;51.046;6.772;2022-12-07T14:24:46;13.90;;;6.43;;
5507;SDS011;2776;51.046;6.772;2022-12-07T14:27:17;9.30;;;6.73;;
5507;SDS011;2776;51.046;6.772;2022-12-07T14:29:46;12.93;;;6.83;;
5507;SDS011;2776;51.046;6.772;2022-12-07T14:32:17;9.77;;;6.57;;
5507;SDS011;2776;51.046;6.772;2022-12-07T14:34:56;11.53;;;6.13;;
5507;SDS011;2776;51.046;6.772;2022-12-07T14:37:24;10.47;;;6.37;;
5507;SDS011;2776;51.046;6.772;2022-12-07T14:39:51;11.73;;;5.93;;
5507;SDS011;2776;51.046;6.772;2022-12-07T14:42:18;8.63;;;6.40;;
5507;SDS011;2776;51.046;6.772;2022-12-07T14:44:47;14.83;;;7.17;;
5507;SDS011;2776;51.046;6.772;2022-12-07T14:47:13;10.03;;;6.17;;
5507;SDS011;2776;51.046;6.772;2022-12-07T14:49:40;9.53;;;5.97;;
5507;SDS011;2776;51.046;6.772;2022-12-07T14:52:09;9.50;;;5.47;;
5507;SDS011;2776;51.046;6.772;2022-12-07T14:54:42;8.47;;;5.10;;
5507;SDS011;2776;51.046;6.772;2022-12-07T14:57:09;9.53;;;5.33;;
5507;SDS011;2776;51.046;6.772;2022-12-07T14:59:36;9.20;;;5.67;;
5507;SDS011;2776;51.046;6.772;2022-12-07T15:02:04;5.67;;;3.50;;
5507;SDS011;2776;51.046;6.772;2022-12-07T15:04:32;3.43;;;2.73;;
5507;SDS011;2776;51.046;6.772;2022-12-07T15:06:59;5.47;;;3.70;;
5507;SDS011;2776;51.046;6.772;2022-12-07T15:09:28;7.37;;;4.03;;
5507;SDS011;2776;51.046;6.772;2022-12-07T15:11:54;11.27;;;4.80;;
5507;SDS011;2776;51.046;6.772;2022-12-07T15:14:21;5.70;;;4.57;;
5507;SDS011;2776;51.046;6.772;2022-12-07T15:16:48;8.07;;;4.77;;
5507;SDS011;2776;51.046;6.772;2022-12-07T15:19:17;13.60;;;6.30;;
5507;SDS011;2776;51.046;6.772;2022-12-07T15:21:47;7.60;;;5.00;;
5507;SDS011;2776;51.046;6.772;2022-12-07T15:24:14;5.87;;;4.57;;
5507;SDS011;2776;51.046;6.772;2022-12-07T15:26:41;9.73;;;5.00;;
5507;SDS011;2776;51.046;6.772;2022-12-07T15:29:09;5.57;;;5.07;;
5507;SDS011;2776;51.046;6.772;2022-12-07T15:31:36;5.97;;;4.40;;
5507;SDS011;2776;51.046;6.772;2022-12-07T15:34:04;5.70;;;4.40;;
5507;SDS011;2776;51.046;6.772;2022-12-07T15:36:33;8.10;;;4.37;;
5507;SDS011;2776;51.046;6.772;2022-12-07T15:39:00;5.47;;;4.47;;